Terminal Aerodrome Forecast
Issued by NWS Twin Cities, MN

Home | Current Version | Previous Version | Graphics & Text | Print | Product List | Glossary On
Versions: 1 2 3 4 5 6 7 8 9 10 11 12 13 14 15 16 17 18 19 20 21 22 23 24 25 26 27 28 29 30 31 32 33
000
FTUS43 KMPX 170520
TAFMSP
TAF
KMSP 170520Z 1706/1812 14014G21KT P6SM SCT020 OVC140
     FM171400 15011KT 6SM -DZ BR OVC014
     FM171600 15008KT 4SM -DZ BR OVC008
     FM172300 34006KT 5SM -DZ BR OVC008
     FM180400 34010KT P6SM OVC012=

USA.gov is the U.S. government's official web portal to all federal, state and local government web resources and services.